X  CloseMetar Aviation Weather Data     EKYT Aalborg

Temperature

17°C Temperature

16°C Dewpoint

94% Humidity



Wind

 8 KM/H

 5 MPH

 2 M/S

 4 KTS



200°
South South
West
Current Conditions

Partly Cloudy Partly Cloudy
Pressure 1008.92 (hPa) - 29.79 (in)
Visibility 4.3 (mi) - 7 (km)
Airport
Airport-code EKYT

Location Aalborg 55 (km)

Metar:
EKYT 202358Z AUTO 20004KT 7000 FEW012/// SCT017/// BKN027/// BKN200/// 17/16 Q1009

Time: 21-07-2019 01:58